sensor_id;sensor_type;location;lat;lon;timestamp;temperature;humidity
56046;DHT22;41913;51.030;3.706;2023-07-20T09:10:34;25.00;76.50
56046;DHT22;41913;51.030;3.706;2023-07-20T09:13:00;25.10;76.60
56046;DHT22;41913;51.030;3.706;2023-07-20T09:15:25;25.10;76.50
56046;DHT22;41913;51.030;3.706;2023-07-20T09:17:52;25.10;76.60
56046;DHT22;41913;51.030;3.706;2023-07-20T09:20:19;25.10;76.30
56046;DHT22;41913;51.030;3.706;2023-07-20T09:22:46;25.10;75.90
56046;DHT22;41913;51.030;3.706;2023-07-20T09:25:16;25.10;76.30
56046;DHT22;41913;51.030;3.706;2023-07-20T09:27:46;25.10;76.60
56046;DHT22;41913;51.030;3.706;2023-07-20T09:30:14;25.10;76.60
56046;DHT22;41913;51.030;3.706;2023-07-20T09:32:42;25.10;76.60
56046;DHT22;41913;51.030;3.706;2023-07-20T09:35:18;25.10;76.50
56046;DHT22;41913;51.030;3.706;2023-07-20T09:37:51;25.10;76.60
56046;DHT22;41913;51.030;3.706;2023-07-20T09:40:20;25.10;76.60
56046;DHT22;41913;51.030;3.706;2023-07-20T09:42:46;25.10;76.40
56046;DHT22;41913;51.030;3.706;2023-07-20T09:45:12;25.00;76.40
56046;DHT22;41913;51.030;3.706;2023-07-20T09:47:38;25.10;76.50
56046;DHT22;41913;51.030;3.706;2023-07-20T09:50:05;25.00;76.50
56046;DHT22;41913;51.030;3.706;2023-07-20T09:52:38;25.00;76.30
56046;DHT22;41913;51.030;3.706;2023-07-20T09:55:08;25.00;76.20
56046;DHT22;41913;51.030;3.706;2023-07-20T09:57:35;25.00;76.30
56046;DHT22;41913;51.030;3.706;2023-07-20T10:00:04;25.00;76.40
56046;DHT22;41913;51.030;3.706;2023-07-20T10:02:43;25.10;76.50
56046;DHT22;41913;51.030;3.706;2023-07-20T10:05:14;25.00;76.30
56046;DHT22;41913;51.030;3.706;2023-07-20T10:07:44;25.00;76.20
56046;DHT22;41913;51.030;3.706;2023-07-20T10:10:16;25.00;76.20
56046;DHT22;41913;51.030;3.706;2023-07-20T10:12:44;25.00;76.10
56046;DHT22;41913;51.030;3.706;2023-07-20T10:15:24;25.00;76.20
56046;DHT22;41913;51.030;3.706;2023-07-20T10:17:59;25.00;76.20
56046;DHT22;41913;51.030;3.706;2023-07-20T10:20:30;25.00;76.30
56046;DHT22;41913;51.030;3.706;2023-07-20T10:22:57;25.00;76.30
56046;DHT22;41913;51.030;3.706;2023-07-20T10:25:23;25.00;76.40
56046;DHT22;41913;51.030;3.706;2023-07-20T10:27:50;25.00;76.30
56046;DHT22;41913;51.030;3.706;2023-07-20T10:30:17;25.00;76.40
56046;DHT22;41913;51.030;3.706;2023-07-20T10:32:45;25.00;76.30
56046;DHT22;41913;51.030;3.706;2023-07-20T10:35:17;25.00;76.40
56046;DHT22;41913;51.030;3.706;2023-07-20T10:40:29;25.00;76.50
56046;DHT22;41913;51.030;3.706;2023-07-20T10:45:41;25.00;76.60
56046;DHT22;41913;51.030;3.706;2023-07-20T10:48:33;25.00;76.50
56046;DHT22;41913;51.030;3.706;2023-07-20T10:51:22;25.00;76.30
56046;DHT22;41913;51.030;3.706;2023-07-20T10:53:49;25.00;76.20
56046;DHT22;41913;51.030;3.706;2023-07-20T10:56:21;25.00;75.60
56046;DHT22;41913;51.030;3.706;2023-07-20T10:58:46;25.00;75.60
56046;DHT22;41913;51.030;3.706;2023-07-20T11:01:18;25.00;75.60
56046;DHT22;41913;51.030;3.706;2023-07-20T11:03:49;25.00;75.10
56046;DHT22;41913;51.030;3.706;2023-07-20T11:09:13;25.00;74.90
56046;DHT22;41913;51.030;3.706;2023-07-20T11:11:47;25.00;74.70
56046;DHT22;41913;51.030;3.706;2023-07-20T11:14:26;25.00;74.90
56046;DHT22;41913;51.030;3.706;2023-07-20T11:16:52;25.00;74.90
56046;DHT22;41913;51.030;3.706;2023-07-20T11:21:45;25.00;75.00
56046;DHT22;41913;51.030;3.706;2023-07-20T11:24:11;25.00;74.90
56046;DHT22;41913;51.030;3.706;2023-07-20T11:26:43;25.00;75.50
56046;DHT22;41913;51.030;3.706;2023-07-20T11:29:09;25.00;74.90
56046;DHT22;41913;51.030;3.706;2023-07-20T11:31:40;25.00;74.70
56046;DHT22;41913;51.030;3.706;2023-07-20T11:34:09;25.00;74.10
56046;DHT22;41913;51.030;3.706;2023-07-20T11:36:35;25.00;74.10
56046;DHT22;41913;51.030;3.706;2023-07-20T11:39:01;25.00;74.10
56046;DHT22;41913;51.030;3.706;2023-07-20T11:41:26;25.00;74.20
56046;DHT22;41913;51.030;3.706;2023-07-20T11:43:53;25.00;74.20
56046;DHT22;41913;51.030;3.706;2023-07-20T11:46:19;25.00;74.40
56046;DHT22;41913;51.030;3.706;2023-07-20T11:48:45;25.00;74.60
56046;DHT22;41913;51.030;3.706;2023-07-20T11:51:15;25.00;74.70
56046;DHT22;41913;51.030;3.706;2023-07-20T11:53:45;25.00;74.90
56046;DHT22;41913;51.030;3.706;2023-07-20T11:56:12;25.00;75.00
56046;DHT22;41913;51.030;3.706;2023-07-20T11:58:46;25.00;75.00
56046;DHT22;41913;51.030;3.706;2023-07-20T12:01:13;25.00;75.00
56046;DHT22;41913;51.030;3.706;2023-07-20T12:03:39;25.00;75.20
56046;DHT22;41913;51.030;3.706;2023-07-20T12:06:08;25.00;75.30
56046;DHT22;41913;51.030;3.706;2023-07-20T12:08:34;25.00;75.30
56046;DHT22;41913;51.030;3.706;2023-07-20T12:11:00;25.00;75.30
56046;DHT22;41913;51.030;3.706;2023-07-20T12:13:42;25.00;75.40
56046;DHT22;41913;51.030;3.706;2023-07-20T12:16:15;25.00;75.30
56046;DHT22;41913;51.030;3.706;2023-07-20T12:18:43;25.00;75.40
56046;DHT22;41913;51.030;3.706;2023-07-20T12:21:08;25.00;75.50
56046;DHT22;41913;51.030;3.706;2023-07-20T12:23:38;25.00;75.60
56046;DHT22;41913;51.030;3.706;2023-07-20T12:26:09;25.00;76.20
56046;DHT22;41913;51.030;3.706;2023-07-20T12:28:40;25.00;75.60
56046;DHT22;41913;51.030;3.706;2023-07-20T12:31:07;25.00;76.00
56046;DHT22;41913;51.030;3.706;2023-07-20T12:33:33;25.00;76.10
56046;DHT22;41913;51.030;3.706;2023-07-20T12:36:00;25.00;76.00
56046;DHT22;41913;51.030;3.706;2023-07-20T12:38:27;25.00;76.20
56046;DHT22;41913;51.030;3.706;2023-07-20T12:40:54;25.00;76.40
56046;DHT22;41913;51.030;3.706;2023-07-20T12:43:22;25.10;76.80
56046;DHT22;41913;51.030;3.706;2023-07-20T12:45:48;25.00;76.90
56046;DHT22;41913;51.030;3.706;2023-07-20T12:48:14;25.00;76.90
56046;DHT22;41913;51.030;3.706;2023-07-20T12:50:39;25.10;77.10
56046;DHT22;41913;51.030;3.706;2023-07-20T12:53:05;25.10;76.70
56046;DHT22;41913;51.030;3.706;2023-07-20T12:55:32;25.00;76.00
56046;DHT22;41913;51.030;3.706;2023-07-20T12:57:57;25.10;76.00
56046;DHT22;41913;51.030;3.706;2023-07-20T13:00:23;25.10;76.20
56046;DHT22;41913;51.030;3.706;2023-07-20T13:02:52;25.10;75.70
56046;DHT22;41913;51.030;3.706;2023-07-20T13:05:17;25.10;75.40
56046;DHT22;41913;51.030;3.706;2023-07-20T13:07:44;25.10;75.20
56046;DHT22;41913;51.030;3.706;2023-07-20T13:10:10;25.10;75.40
56046;DHT22;41913;51.030;3.706;2023-07-20T13:12:37;25.10;75.40
56046;DHT22;41913;51.030;3.706;2023-07-20T13:15:04;25.10;75.70
56046;DHT22;41913;51.030;3.706;2023-07-20T13:17:34;25.10;75.80
56046;DHT22;41913;51.030;3.706;2023-07-20T13:20:01;25.20;75.80
56046;DHT22;41913;51.030;3.706;2023-07-20T13:22:27;25.10;75.80
56046;DHT22;41913;51.030;3.706;2023-07-20T13:24:53;25.10;75.80
56046;DHT22;41913;51.030;3.706;2023-07-20T13:27:19;25.10;75.80
56046;DHT22;41913;51.030;3.706;2023-07-20T13:29:45;25.10;75.80
56046;DHT22;41913;51.030;3.706;2023-07-20T13:32:14;25.10;75.80
56046;DHT22;41913;51.030;3.706;2023-07-20T13:34:46;25.10;75.70
56046;DHT22;41913;51.030;3.706;2023-07-20T13:37:12;25.10;75.70
56046;DHT22;41913;51.030;3.706;2023-07-20T13:39:38;25.10;75.70
56046;DHT22;41913;51.030;3.706;2023-07-20T13:42:05;25.10;75.80
56046;DHT22;41913;51.030;3.706;2023-07-20T13:44:31;25.10;75.70
56046;DHT22;41913;51.030;3.706;2023-07-20T13:46:57;25.10;75.70
56046;DHT22;41913;51.030;3.706;2023-07-20T13:49:23;25.10;75.70
56046;DHT22;41913;51.030;3.706;2023-07-20T13:51:49;25.10;75.70
56046;DHT22;41913;51.030;3.706;2023-07-20T13:54:14;25.10;75.70
56046;DHT22;41913;51.030;3.706;2023-07-20T13:56:40;25.10;76.00
56046;DHT22;41913;51.030;3.706;2023-07-20T13:59:06;25.10;75.60
56046;DHT22;41913;51.030;3.706;2023-07-20T14:01:32;25.10;75.60
56046;DHT22;41913;51.030;3.706;2023-07-20T14:04:01;25.10;75.60
56046;DHT22;41913;51.030;3.706;2023-07-20T14:06:31;25.10;75.60
56046;DHT22;41913;51.030;3.706;2023-07-20T14:08:57;25.10;75.60
56046;DHT22;41913;51.030;3.706;2023-07-20T14:11:23;25.10;75.60
56046;DHT22;41913;51.030;3.706;2023-07-20T14:13:52;25.10;75.60
56046;DHT22;41913;51.030;3.706;2023-07-20T14:16:22;25.10;75.70
56046;DHT22;41913;51.030;3.706;2023-07-20T14:18:48;25.10;76.00
56046;DHT22;41913;51.030;3.706;2023-07-20T14:21:15;25.20;76.30
56046;DHT22;41913;51.030;3.706;2023-07-20T14:23:41;25.20;76.30
56046;DHT22;41913;51.030;3.706;2023-07-20T14:26:06;25.20;76.30
56046;DHT22;41913;51.030;3.706;2023-07-20T14:28:34;25.20;76.60
56046;DHT22;41913;51.030;3.706;2023-07-20T14:31:01;25.20;76.80
56046;DHT22;41913;51.030;3.706;2023-07-20T14:33:27;25.20;76.80
56046;DHT22;41913;51.030;3.706;2023-07-20T14:35:55;25.20;77.00
56046;DHT22;41913;51.030;3.706;2023-07-20T14:38:20;25.20;77.10
56046;DHT22;41913;51.030;3.706;2023-07-20T14:40:46;25.20;77.20
56046;DHT22;41913;51.030;3.706;2023-07-20T14:43:13;25.20;77.00
56046;DHT22;41913;51.030;3.706;2023-07-20T14:45:41;25.20;77.30
56046;DHT22;41913;51.030;3.706;2023-07-20T14:48:09;25.20;77.50
56046;DHT22;41913;51.030;3.706;2023-07-20T14:50:35;25.20;77.60
56046;DHT22;41913;51.030;3.706;2023-07-20T14:53:00;25.20;77.70
56046;DHT22;41913;51.030;3.706;2023-07-20T14:55:26;25.20;77.90
56046;DHT22;41913;51.030;3.706;2023-07-20T14:57:52;25.20;78.10
56046;DHT22;41913;51.030;3.706;2023-07-20T15:00:18;25.20;78.20
56046;DHT22;41913;51.030;3.706;2023-07-20T15:02:43;25.20;78.30
56046;DHT22;41913;51.030;3.706;2023-07-20T15:05:10;25.20;78.60
56046;DHT22;41913;51.030;3.706;2023-07-20T15:07:36;25.20;78.50
56046;DHT22;41913;51.030;3.706;2023-07-20T15:10:04;25.20;78.70
56046;DHT22;41913;51.030;3.706;2023-07-20T15:12:33;25.30;78.80
56046;DHT22;41913;51.030;3.706;2023-07-20T15:15:04;25.30;79.00
56046;DHT22;41913;51.030;3.706;2023-07-20T15:17:33;25.30;79.30
56046;DHT22;41913;51.030;3.706;2023-07-20T15:20:02;25.30;79.50
56046;DHT22;41913;51.030;3.706;2023-07-20T15:22:35;25.30;79.50
56046;DHT22;41913;51.030;3.706;2023-07-20T15:25:02;25.30;79.30
56046;DHT22;41913;51.030;3.706;2023-07-20T15:27:29;25.30;78.70
56046;DHT22;41913;51.030;3.706;2023-07-20T15:29:55;25.30;78.60
56046;DHT22;41913;51.030;3.706;2023-07-20T15:32:21;25.30;78.40
56046;DHT22;41913;51.030;3.706;2023-07-20T15:34:47;25.30;78.40
56046;DHT22;41913;51.030;3.706;2023-07-20T15:37:14;25.30;78.10
56046;DHT22;41913;51.030;3.706;2023-07-20T15:39:41;25.30;78.20
56046;DHT22;41913;51.030;3.706;2023-07-20T15:42:07;25.30;79.60
56046;DHT22;41913;51.030;3.706;2023-07-20T15:44:33;25.30;80.60
56046;DHT22;41913;51.030;3.706;2023-07-20T15:47:00;25.30;81.00
56046;DHT22;41913;51.030;3.706;2023-07-20T15:49:27;25.30;81.50
56046;DHT22;41913;51.030;3.706;2023-07-20T15:51:54;25.30;81.40
56046;DHT22;41913;51.030;3.706;2023-07-20T15:54:21;25.30;81.80
56046;DHT22;41913;51.030;3.706;2023-07-20T15:56:46;25.40;82.60
56046;DHT22;41913;51.030;3.706;2023-07-20T15:59:14;25.40;82.70
56046;DHT22;41913;51.030;3.706;2023-07-20T16:01:42;25.40;82.40
56046;DHT22;41913;51.030;3.706;2023-07-20T16:04:09;25.40;83.00
56046;DHT22;41913;51.030;3.706;2023-07-20T16:06:35;25.40;82.20
56046;DHT22;41913;51.030;3.706;2023-07-20T16:09:05;25.40;82.50
56046;DHT22;41913;51.030;3.706;2023-07-20T16:11:34;25.40;83.20
56046;DHT22;41913;51.030;3.706;2023-07-20T16:14:01;25.40;83.40
56046;DHT22;41913;51.030;3.706;2023-07-20T16:16:29;25.40;83.30
56046;DHT22;41913;51.030;3.706;2023-07-20T16:18:55;25.40;84.10
56046;DHT22;41913;51.030;3.706;2023-07-20T16:21:23;25.40;83.60
56046;DHT22;41913;51.030;3.706;2023-07-20T16:23:50;25.40;83.10
56046;DHT22;41913;51.030;3.706;2023-07-20T16:26:16;25.40;83.50
56046;DHT22;41913;51.030;3.706;2023-07-20T16:28:45;25.40;83.90
56046;DHT22;41913;51.030;3.706;2023-07-20T16:31:16;25.40;83.90
56046;DHT22;41913;51.030;3.706;2023-07-20T16:33:43;25.40;83.40
56046;DHT22;41913;51.030;3.706;2023-07-20T16:36:16;25.40;83.60
56046;DHT22;41913;51.030;3.706;2023-07-20T16:38:43;25.40;83.90
56046;DHT22;41913;51.030;3.706;2023-07-20T16:41:10;25.40;84.00
56046;DHT22;41913;51.030;3.706;2023-07-20T16:43:39;25.40;83.60
56046;DHT22;41913;51.030;3.706;2023-07-20T16:46:07;25.40;84.00
56046;DHT22;41913;51.030;3.706;2023-07-20T16:48:35;25.40;84.00
56046;DHT22;41913;51.030;3.706;2023-07-20T16:51:01;25.40;83.60
56046;DHT22;41913;51.030;3.706;2023-07-20T16:53:29;25.40;83.20
56046;DHT22;41913;51.030;3.706;2023-07-20T16:55:56;25.40;82.80
56046;DHT22;41913;51.030;3.706;2023-07-20T16:58:25;25.30;82.20
56046;DHT22;41913;51.030;3.706;2023-07-20T17:01:04;25.40;82.90
56046;DHT22;41913;51.030;3.706;2023-07-20T17:03:32;25.40;83.70
56046;DHT22;41913;51.030;3.706;2023-07-20T17:05:59;25.30;84.00
56046;DHT22;41913;51.030;3.706;2023-07-20T17:08:25;25.40;83.80
56046;DHT22;41913;51.030;3.706;2023-07-20T17:10:52;25.30;84.00
56046;DHT22;41913;51.030;3.706;2023-07-20T17:13:21;25.30;83.80
56046;DHT22;41913;51.030;3.706;2023-07-20T17:15:50;25.30;83.70
56046;DHT22;41913;51.030;3.706;2023-07-20T17:18:17;25.30;83.70
56046;DHT22;41913;51.030;3.706;2023-07-20T17:20:49;25.30;83.50
56046;DHT22;41913;51.030;3.706;2023-07-20T17:23:18;25.40;83.70
56046;DHT22;41913;51.030;3.706;2023-07-20T17:25:47;25.30;83.70
56046;DHT22;41913;51.030;3.706;2023-07-20T17:28:16;25.40;83.60
56046;DHT22;41913;51.030;3.706;2023-07-20T17:30:55;25.30;82.90
56046;DHT22;41913;51.030;3.706;2023-07-20T17:33:22;25.40;83.40
56046;DHT22;41913;51.030;3.706;2023-07-20T17:35:51;25.30;83.60
56046;DHT22;41913;51.030;3.706;2023-07-20T17:38:16;25.30;83.30
56046;DHT22;41913;51.030;3.706;2023-07-20T17:40:42;25.30;83.30
56046;DHT22;41913;51.030;3.706;2023-07-20T17:43:11;25.30;83.10
56046;DHT22;41913;51.030;3.706;2023-07-20T17:45:36;25.30;83.10
56046;DHT22;41913;51.030;3.706;2023-07-20T17:48:02;25.30;83.20
56046;DHT22;41913;51.030;3.706;2023-07-20T17:50:38;25.30;83.20
56046;DHT22;41913;51.030;3.706;2023-07-20T17:53:05;25.30;83.20
56046;DHT22;41913;51.030;3.706;2023-07-20T17:55:30;25.30;82.60
56046;DHT22;41913;51.030;3.706;2023-07-20T17:57:56;25.30;83.40
56046;DHT22;41913;51.030;3.706;2023-07-20T18:00:25;25.30;83.10
56046;DHT22;41913;51.030;3.706;2023-07-20T18:02:52;25.30;83.00
56046;DHT22;41913;51.030;3.706;2023-07-20T18:05:19;25.30;82.20
56046;DHT22;41913;51.030;3.706;2023-07-20T18:07:48;25.30;81.30
56046;DHT22;41913;51.030;3.706;2023-07-20T18:10:14;25.40;81.30
56046;DHT22;41913;51.030;3.706;2023-07-20T18:12:42;25.30;81.20
56046;DHT22;41913;51.030;3.706;2023-07-20T18:15:08;25.40;81.40
56046;DHT22;41913;51.030;3.706;2023-07-20T18:17:37;25.40;82.30
56046;DHT22;41913;51.030;3.706;2023-07-20T18:20:08;25.40;82.80
56046;DHT22;41913;51.030;3.706;2023-07-20T18:22:35;25.40;82.70
56046;DHT22;41913;51.030;3.706;2023-07-20T18:25:03;25.40;83.30
56046;DHT22;41913;51.030;3.706;2023-07-20T18:27:30;25.40;82.80
56046;DHT22;41913;51.030;3.706;2023-07-20T18:29:56;25.40;81.10
56046;DHT22;41913;51.030;3.706;2023-07-20T18:32:22;25.40;80.90
56046;DHT22;41913;51.030;3.706;2023-07-20T18:34:48;25.40;81.10
56046;DHT22;41913;51.030;3.706;2023-07-20T18:37:14;25.30;81.10
56046;DHT22;41913;51.030;3.706;2023-07-20T18:39:47;25.40;81.30
56046;DHT22;41913;51.030;3.706;2023-07-20T18:42:13;25.30;81.40
56046;DHT22;41913;51.030;3.706;2023-07-20T18:44:39;25.30;81.30
56046;DHT22;41913;51.030;3.706;2023-07-20T18:47:05;25.30;81.20
56046;DHT22;41913;51.030;3.706;2023-07-20T18:49:31;25.30;82.20
56046;DHT22;41913;51.030;3.706;2023-07-20T18:51:57;25.30;82.20
56046;DHT22;41913;51.030;3.706;2023-07-20T18:54:23;25.30;82.40
56046;DHT22;41913;51.030;3.706;2023-07-20T18:56:50;25.30;82.40
56046;DHT22;41913;51.030;3.706;2023-07-20T18:59:17;25.30;82.40
56046;DHT22;41913;51.030;3.706;2023-07-20T19:01:43;25.30;83.50
56046;DHT22;41913;51.030;3.706;2023-07-20T19:04:08;25.30;82.90
56046;DHT22;41913;51.030;3.706;2023-07-20T19:06:34;25.30;82.80
56046;DHT22;41913;51.030;3.706;2023-07-20T19:09:00;25.30;82.80
56046;DHT22;41913;51.030;3.706;2023-07-20T19:11:25;25.30;82.70
56046;DHT22;41913;51.030;3.706;2023-07-20T19:13:51;25.30;82.70
56046;DHT22;41913;51.030;3.706;2023-07-20T19:16:17;25.30;82.70
56046;DHT22;41913;51.030;3.706;2023-07-20T19:18:43;25.30;82.60
56046;DHT22;41913;51.030;3.706;2023-07-20T19:21:10;25.30;82.50
56046;DHT22;41913;51.030;3.706;2023-07-20T19:23:39;25.20;82.40
56046;DHT22;41913;51.030;3.706;2023-07-20T19:26:07;25.20;82.10
56046;DHT22;41913;51.030;3.706;2023-07-20T19:28:33;25.20;82.20
56046;DHT22;41913;51.030;3.706;2023-07-20T19:31:00;25.20;82.30
56046;DHT22;41913;51.030;3.706;2023-07-20T19:33:25;25.20;82.90
56046;DHT22;41913;51.030;3.706;2023-07-20T19:35:51;25.20;82.60
56046;DHT22;41913;51.030;3.706;2023-07-20T19:38:24;25.20;82.30
56046;DHT22;41913;51.030;3.706;2023-07-20T19:40:50;25.20;82.40
56046;DHT22;41913;51.030;3.706;2023-07-20T19:43:16;25.20;82.40
56046;DHT22;41913;51.030;3.706;2023-07-20T19:45:44;25.20;82.40
56046;DHT22;41913;51.030;3.706;2023-07-20T19:48:10;25.10;82.50
56046;DHT22;41913;51.030;3.706;2023-07-20T19:50:39;25.10;82.80
56046;DHT22;41913;51.030;3.706;2023-07-20T19:53:08;25.10;83.20
56046;DHT22;41913;51.030;3.706;2023-07-20T19:55:36;25.10;82.80
56046;DHT22;41913;51.030;3.706;2023-07-20T19:58:04;25.10;82.50
56046;DHT22;41913;51.030;3.706;2023-07-20T20:00:36;25.10;82.30
56046;DHT22;41913;51.030;3.706;2023-07-20T20:03:04;25.10;82.80
56046;DHT22;41913;51.030;3.706;2023-07-20T20:05:29;25.10;83.00
56046;DHT22;41913;51.030;3.706;2023-07-20T20:07:57;25.10;83.30
56046;DHT22;41913;51.030;3.706;2023-07-20T20:10:23;25.10;83.70
56046;DHT22;41913;51.030;3.706;2023-07-20T20:12:50;25.10;84.00
56046;DHT22;41913;51.030;3.706;2023-07-20T20:15:16;25.10;84.00
56046;DHT22;41913;51.030;3.706;2023-07-20T20:17:44;25.10;84.00
56046;DHT22;41913;51.030;3.706;2023-07-20T20:20:10;25.10;83.70
56046;DHT22;41913;51.030;3.706;2023-07-20T20:22:37;25.10;83.80
56046;DHT22;41913;51.030;3.706;2023-07-20T20:25:04;25.00;84.40
56046;DHT22;41913;51.030;3.706;2023-07-20T20:27:31;25.10;84.70
56046;DHT22;41913;51.030;3.706;2023-07-20T20:29:57;25.00;84.40
56046;DHT22;41913;51.030;3.706;2023-07-20T20:32:22;25.00;84.30
56046;DHT22;41913;51.030;3.706;2023-07-20T20:34:49;25.00;84.60
56046;DHT22;41913;51.030;3.706;2023-07-20T20:37:15;25.00;84.70
56046;DHT22;41913;51.030;3.706;2023-07-20T20:39:41;25.00;84.50
56046;DHT22;41913;51.030;3.706;2023-07-20T20:42:07;24.90;83.60
56046;DHT22;41913;51.030;3.706;2023-07-20T20:44:33;24.90;83.90
56046;DHT22;41913;51.030;3.706;2023-07-20T20:46:59;24.90;84.10
56046;DHT22;41913;51.030;3.706;2023-07-20T20:49:28;24.80;84.10
56046;DHT22;41913;51.030;3.706;2023-07-20T20:51:54;24.80;84.40
56046;DHT22;41913;51.030;3.706;2023-07-20T20:54:20;24.80;84.10
56046;DHT22;41913;51.030;3.706;2023-07-20T20:56:46;24.80;83.90
56046;DHT22;41913;51.030;3.706;2023-07-20T20:59:11;24.80;84.00
56046;DHT22;41913;51.030;3.706;2023-07-20T21:01:37;24.70;84.40
56046;DHT22;41913;51.030;3.706;2023-07-20T21:04:04;24.70;84.90
56046;DHT22;41913;51.030;3.706;2023-07-20T21:06:29;24.70;84.70
56046;DHT22;41913;51.030;3.706;2023-07-20T21:08:55;24.70;84.60
56046;DHT22;41913;51.030;3.706;2023-07-20T21:11:21;24.70;84.50
56046;DHT22;41913;51.030;3.706;2023-07-20T21:13:48;24.70;84.60
56046;DHT22;41913;51.030;3.706;2023-07-20T21:16:14;24.60;84.50
56046;DHT22;41913;51.030;3.706;2023-07-20T21:18:39;24.60;84.40
56046;DHT22;41913;51.030;3.706;2023-07-20T21:21:07;24.60;84.80
56046;DHT22;41913;51.030;3.706;2023-07-20T21:23:33;24.50;84.90
56046;DHT22;41913;51.030;3.706;2023-07-20T21:25:58;24.50;84.90
56046;DHT22;41913;51.030;3.706;2023-07-20T21:28:24;24.50;84.70
56046;DHT22;41913;51.030;3.706;2023-07-20T21:31:07;24.50;84.70
56046;DHT22;41913;51.030;3.706;2023-07-20T21:33:33;24.50;84.50
56046;DHT22;41913;51.030;3.706;2023-07-20T21:36:00;24.50;84.40
56046;DHT22;41913;51.030;3.706;2023-07-20T21:38:26;24.40;84.40
56046;DHT22;41913;51.030;3.706;2023-07-20T21:40:52;24.40;84.40
56046;DHT22;41913;51.030;3.706;2023-07-20T21:43:17;24.40;84.60
56046;DHT22;41913;51.030;3.706;2023-07-20T21:45:47;24.40;84.30
56046;DHT22;41913;51.030;3.706;2023-07-20T21:48:13;24.40;84.60
56046;DHT22;41913;51.030;3.706;2023-07-20T21:50:38;24.40;84.80
56046;DHT22;41913;51.030;3.706;2023-07-20T21:53:08;24.30;84.80
56046;DHT22;41913;51.030;3.706;2023-07-20T21:55:35;24.30;84.30
56046;DHT22;41913;51.030;3.706;2023-07-20T21:58:00;24.30;84.30
56046;DHT22;41913;51.030;3.706;2023-07-20T22:00:26;24.30;83.90
56046;DHT22;41913;51.030;3.706;2023-07-20T22:02:51;24.20;84.50
56046;DHT22;41913;51.030;3.706;2023-07-20T22:05:17;24.20;84.50
56046;DHT22;41913;51.030;3.706;2023-07-20T22:07:47;24.30;84.70
56046;DHT22;41913;51.030;3.706;2023-07-20T22:10:12;24.20;84.90
56046;DHT22;41913;51.030;3.706;2023-07-20T22:12:38;24.20;85.30
56046;DHT22;41913;51.030;3.706;2023-07-20T22:15:05;24.20;85.10
56046;DHT22;41913;51.030;3.706;2023-07-20T22:17:34;24.10;84.70
56046;DHT22;41913;51.030;3.706;2023-07-20T22:20:00;24.10;84.90
56046;DHT22;41913;51.030;3.706;2023-07-20T22:22:26;24.10;85.20
56046;DHT22;41913;51.030;3.706;2023-07-20T22:24:51;24.10;85.40
56046;DHT22;41913;51.030;3.706;2023-07-20T22:27:18;24.10;85.30
56046;DHT22;41913;51.030;3.706;2023-07-20T22:29:43;24.10;85.30
56046;DHT22;41913;51.030;3.706;2023-07-20T22:32:10;24.10;85.40
56046;DHT22;41913;51.030;3.706;2023-07-20T22:34:36;24.10;85.30
56046;DHT22;41913;51.030;3.706;2023-07-20T22:37:02;24.10;85.40
56046;DHT22;41913;51.030;3.706;2023-07-20T22:39:30;24.10;85.40
56046;DHT22;41913;51.030;3.706;2023-07-20T22:41:57;24.10;85.30
56046;DHT22;41913;51.030;3.706;2023-07-20T22:44:23;24.10;85.30
56046;DHT22;41913;51.030;3.706;2023-07-20T22:46:49;24.00;85.20
56046;DHT22;41913;51.030;3.706;2023-07-20T22:49:15;24.00;85.10
56046;DHT22;41913;51.030;3.706;2023-07-20T22:51:41;24.00;85.20
56046;DHT22;41913;51.030;3.706;2023-07-20T22:54:07;24.00;85.30
56046;DHT22;41913;51.030;3.706;2023-07-20T22:56:32;24.00;85.20
56046;DHT22;41913;51.030;3.706;2023-07-20T22:58:59;23.90;84.90
56046;DHT22;41913;51.030;3.706;2023-07-20T23:01:24;24.00;84.70
56046;DHT22;41913;51.030;3.706;2023-07-20T23:03:51;23.90;85.10
56046;DHT22;41913;51.030;3.706;2023-07-20T23:06:18;23.90;84.90
56046;DHT22;41913;51.030;3.706;2023-07-20T23:08:44;23.90;85.10
56046;DHT22;41913;51.030;3.706;2023-07-20T23:11:10;23.90;85.70
56046;DHT22;41913;51.030;3.706;2023-07-20T23:13:38;23.90;84.60
56046;DHT22;41913;51.030;3.706;2023-07-20T23:16:05;23.90;84.60
56046;DHT22;41913;51.030;3.706;2023-07-20T23:18:32;23.90;85.00
56046;DHT22;41913;51.030;3.706;2023-07-20T23:20:59;23.90;85.20
56046;DHT22;41913;51.030;3.706;2023-07-20T23:23:25;23.80;84.70
56046;DHT22;41913;51.030;3.706;2023-07-20T23:25:57;23.80;85.00
56046;DHT22;41913;51.030;3.706;2023-07-20T23:28:23;23.80;85.10
56046;DHT22;41913;51.030;3.706;2023-07-20T23:30:49;23.70;85.40
56046;DHT22;41913;51.030;3.706;2023-07-20T23:33:16;23.80;85.00
56046;DHT22;41913;51.030;3.706;2023-07-20T23:35:43;23.80;85.20
56046;DHT22;41913;51.030;3.706;2023-07-20T23:38:09;23.80;85.30
56046;DHT22;41913;51.030;3.706;2023-07-20T23:40:35;23.80;85.50
56046;DHT22;41913;51.030;3.706;2023-07-20T23:43:00;23.70;85.20
56046;DHT22;41913;51.030;3.706;2023-07-20T23:45:27;23.70;84.30
56046;DHT22;41913;51.030;3.706;2023-07-20T23:47:54;23.70;85.00
56046;DHT22;41913;51.030;3.706;2023-07-20T23:50:19;23.70;84.40
56046;DHT22;41913;51.030;3.706;2023-07-20T23:52:45;23.70;84.40
56046;DHT22;41913;51.030;3.706;2023-07-20T23:55:11;23.70;84.40
56046;DHT22;41913;51.030;3.706;2023-07-20T23:57:37;23.70;84.70
